PWSweather.com
Personal Weather Stations
Station Observations
KCARIDGE3
Ridgecrest, CA 93555

Ridgecrest, CA 93555

Lat: 35.62083817, Lon: -117.6733017

Elevation: 2315

Station Type:

High Low Average
Temperature 78.6°F25.9°F 52.3°F11.3°F 64.9°F18.3°F
Dew Point 31.3°F-0.4°F 8.2°F-13.2°F 18.8°F-7.3°F
Winds 11.0 mph SW17.7 mph SW 0.9 mph 1.4 mph 5.3 mph 8.5 mph
Wind Gusts 21.9 mph35.2 mph -- 5.1 mph8.2 mph
Humidity 32% 7% 19%
Pressure 0.00 in0.00 in 0.00 in0.00 in -
Precipitation 0.00 in0.00 in - -
Hour Temp Dew Point Humidity Winds Wind Gusts Pressure Precip Precip Rate Daily Precip Total
12:02 AM 58.3°F14.6°C 21.6°F-5.8°C 24% 11.0 mph SW17.7 kmh SW 13.0 mph20.9 kmh -338605.1 mb 0.00 in0.0 mm 0.00 in/hr0.0 mm/hr 0.00 in0.0 mm
12:07 AM 58.3°F14.6°C 21.6°F-5.8°C 24% 11.0 mph SW17.7 kmh SW 6.9 mph11.1 kmh -338605.1 mb 0.00 in0.0 mm 0.00 in/hr0.0 mm/hr 0.00 in0.0 mm
12:12 AM 58.3°F14.6°C 21.6°F-5.8°C 24% 10.1 mph SSW16.3 kmh SSW 6.9 mph11.1 kmh -338605.1 mb 0.00 in0.0 mm 0.00 in/hr0.0 mm/hr 0.00 in0.0 mm
12:17 AM 58.3°F14.6°C 22.6°F-5.2°C 25% 8.9 mph SW14.3 kmh SW 8.9 mph14.3 kmh -338605.1 mb 0.00 in0.0 mm 0.00 in/hr0.0 mm/hr 0.00 in0.0 mm
12:22 AM 58.3°F14.6°C 21.6°F-5.8°C 24% 10.1 mph SSW16.3 kmh SSW 4.9 mph7.9 kmh -338605.1 mb 0.00 in0.0 mm 0.00 in/hr0.0 mm/hr 0.00 in0.0 mm
12:27 AM 58.3°F14.6°C 21.6°F-5.8°C 24% 11.0 mph WSW17.7 kmh WSW 12.1 mph19.5 kmh -338605.1 mb 0.00 in0.0 mm 0.00 in/hr0.0 mm/hr 0.00 in0.0 mm
12:32 AM 57.9°F14.4°C 21.4°F-5.9°C 24% 11.0 mph WSW17.7 kmh WSW 12.1 mph19.5 kmh -338605.1 mb 0.00 in0.0 mm 0.00 in/hr0.0 mm/hr 0.00 in0.0 mm
12:37 AM 57.7°F14.3°C 21.2°F-6.0°C 24% 10.1 mph SSW16.3 kmh SSW 6.9 mph11.1 kmh -338605.1 mb 0.00 in0.0 mm 0.00 in/hr0.0 mm/hr 0.00 in0.0 mm
12:42 AM 57.7°F14.3°C 22.1°F-5.5°C 25% 10.1 mph SW16.3 kmh SW 6.9 mph11.1 kmh -338605.1 mb 0.00 in0.0 mm 0.00 in/hr0.0 mm/hr 0.00 in0.0 mm
12:47 AM 57.6°F14.2°C 21.9°F-5.6°C 25% 10.1 mph SW16.3 kmh SW 6.9 mph11.1 kmh -338605.1 mb 0.00 in0.0 mm 0.00 in/hr0.0 mm/hr 0.00 in0.0 mm
12:52 AM 57.4°F14.1°C 21.9°F-5.6°C 25% 8.1 mph WSW13.0 kmh WSW 6.0 mph9.7 kmh -338605.1 mb 0.00 in0.0 mm 0.00 in/hr0.0 mm/hr 0.00 in0.0 mm
12:57 AM 57.4°F14.1°C 21.9°F-5.6°C 25% 6.0 mph SW9.7 kmh SW 6.0 mph9.7 kmh -338605.1 mb 0.00 in0.0 mm 0.00 in/hr0.0 mm/hr 0.00 in0.0 mm
01:02 AM 57.2°F14.0°C 20.7°F-6.3°C 24% 6.9 mph SW11.1 kmh SW 8.1 mph13.0 kmh -338605.1 mb 0.00 in0.0 mm 0.00 in/hr0.0 mm/hr 0.00 in0.0 mm
01:07 AM 57.0°F13.9°C 21.6°F-5.8°C 25% 6.9 mph WSW11.1 kmh WSW 8.1 mph13.0 kmh -338605.1 mb 0.00 in0.0 mm 0.00 in/hr0.0 mm/hr 0.00 in0.0 mm
01:12 AM 57.0°F13.9°C 20.5°F-6.4°C 24% 6.9 mph WSW11.1 kmh WSW 6.0 mph9.7 kmh -338605.1 mb 0.00 in0.0 mm 0.00 in/hr0.0 mm/hr 0.00 in0.0 mm
01:17 AM 56.8°F13.8°C 20.5°F-6.4°C 24% 6.0 mph SW9.7 kmh SW 6.0 mph9.7 kmh -338605.1 mb 0.00 in0.0 mm 0.00 in/hr0.0 mm/hr 0.00 in0.0 mm
01:22 AM 56.8°F13.8°C 20.5°F-6.4°C 24% 6.9 mph SW11.1 kmh SW 6.0 mph9.7 kmh -338605.1 mb 0.00 in0.0 mm 0.00 in/hr0.0 mm/hr 0.00 in0.0 mm
01:27 AM 56.7°F13.7°C 20.3°F-6.5°C 24% 8.1 mph SW13.0 kmh SW 6.9 mph11.1 kmh -338605.1 mb 0.00 in0.0 mm 0.00 in/hr0.0 mm/hr 0.00 in0.0 mm
01:32 AM 56.5°F13.6°C 20.1°F-6.6°C 24% 8.1 mph SW13.0 kmh SW 6.0 mph9.7 kmh -338605.1 mb 0.00 in0.0 mm 0.00 in/hr0.0 mm/hr 0.00 in0.0 mm
01:37 AM 56.5°F13.6°C 21.0°F-6.1°C 25% 6.0 mph SW9.7 kmh SW 6.0 mph9.7 kmh -338605.1 mb 0.00 in0.0 mm 0.00 in/hr0.0 mm/hr 0.00 in0.0 mm
01:42 AM 56.5°F13.6°C 21.0°F-6.1°C 25% 4.0 mph SW6.4 kmh SW 2.0 mph3.2 kmh -338605.1 mb 0.00 in0.0 mm 0.00 in/hr0.0 mm/hr 0.00 in0.0 mm
01:47 AM 56.3°F13.5°C 20.8°F-6.2°C 25% 2.0 mph SW3.2 kmh SW 2.0 mph3.2 kmh -338605.1 mb 0.00 in0.0 mm 0.00 in/hr0.0 mm/hr 0.00 in0.0 mm
01:52 AM 56.1°F13.4°C 19.8°F-6.8°C 24% 2.0 mph SW3.2 kmh SW 2.0 mph3.2 kmh -338605.1 mb 0.00 in0.0 mm 0.00 in/hr0.0 mm/hr 0.00 in0.0 mm
01:57 AM 56.1°F13.4°C 19.8°F-6.8°C 24% 2.0 mph SW3.2 kmh SW -- -338605.1 mb 0.00 in0.0 mm 0.00 in/hr0.0 mm/hr 0.00 in0.0 mm
02:02 AM 56.1°F13.4°C 19.8°F-6.8°C 24% 0.9 mph SW1.4 kmh SW -- -338605.1 mb 0.00 in0.0 mm 0.00 in/hr0.0 mm/hr 0.00 in0.0 mm
02:07 AM 55.9°F13.3°C 20.7°F-6.3°C 25% 0.9 mph SW1.4 kmh SW 4.0 mph6.4 kmh -338605.1 mb 0.00 in0.0 mm 0.00 in/hr0.0 mm/hr 0.00 in0.0 mm
02:12 AM 55.8°F13.2°C 20.5°F-6.4°C 25% 2.9 mph SW4.7 kmh SW 2.9 mph4.7 kmh -338605.1 mb 0.00 in0.0 mm 0.00 in/hr0.0 mm/hr 0.00 in0.0 mm
02:17 AM 55.6°F13.1°C 20.3°F-6.5°C 25% 2.9 mph SW4.7 kmh SW 4.9 mph7.9 kmh -338605.1 mb 0.00 in0.0 mm 0.00 in/hr0.0 mm/hr 0.00 in0.0 mm
02:22 AM 55.4°F13.0°C 20.1°F-6.6°C 25% 2.9 mph SW4.7 kmh SW 2.9 mph4.7 kmh -338605.1 mb 0.00 in0.0 mm 0.00 in/hr0.0 mm/hr 0.00 in0.0 mm
02:27 AM 55.2°F12.9°C 19.0°F-7.2°C 24% 2.9 mph SW4.7 kmh SW 2.0 mph3.2 kmh -338605.1 mb 0.00 in0.0 mm 0.00 in/hr0.0 mm/hr 0.00 in0.0 mm
02:32 AM 55.0°F12.8°C 19.8°F-6.8°C 25% 2.0 mph SW3.2 kmh SW 2.0 mph3.2 kmh -338605.1 mb 0.00 in0.0 mm 0.00 in/hr0.0 mm/hr 0.00 in0.0 mm
02:37 AM 54.9°F12.7°C 19.8°F-6.8°C 25% 2.0 mph SW3.2 kmh SW 2.0 mph3.2 kmh -338605.1 mb 0.00 in0.0 mm 0.00 in/hr0.0 mm/hr 0.00 in0.0 mm
02:42 AM 54.7°F12.6°C 19.6°F-6.9°C 25% 2.9 mph SSW4.7 kmh SSW 2.9 mph4.7 kmh -338605.1 mb 0.00 in0.0 mm 0.00 in/hr0.0 mm/hr 0.00 in0.0 mm
02:47 AM 54.7°F12.6°C 19.6°F-6.9°C 25% 4.0 mph SW6.4 kmh SW 2.0 mph3.2 kmh -338605.1 mb 0.00 in0.0 mm 0.00 in/hr0.0 mm/hr 0.00 in0.0 mm
02:52 AM 54.3°F12.4°C 19.2°F-7.1°C 25% 4.9 mph SW7.9 kmh SW 4.9 mph7.9 kmh -338605.1 mb 0.00 in0.0 mm 0.00 in/hr0.0 mm/hr 0.00 in0.0 mm
03:02 AM 54.0°F12.2°C 18.9°F-7.3°C 25% 4.9 mph SW7.9 kmh SW 6.0 mph9.7 kmh -338605.1 mb 0.00 in0.0 mm 0.00 in/hr0.0 mm/hr 0.00 in0.0 mm
03:07 AM 54.0°F12.2°C 18.9°F-7.3°C 25% 4.0 mph SW6.4 kmh SW 2.9 mph4.7 kmh -338605.1 mb 0.00 in0.0 mm 0.00 in/hr0.0 mm/hr 0.00 in0.0 mm
03:12 AM 53.8°F12.1°C 17.8°F-7.9°C 24% 4.0 mph SW6.4 kmh SW 2.9 mph4.7 kmh -338605.1 mb 0.00 in0.0 mm 0.00 in/hr0.0 mm/hr 0.00 in0.0 mm
03:17 AM 53.8°F12.1°C 18.9°F-7.3°C 25% 4.0 mph SW6.4 kmh SW 4.9 mph7.9 kmh -338605.1 mb 0.00 in0.0 mm 0.00 in/hr0.0 mm/hr 0.00 in0.0 mm
03:22 AM 53.8°F12.1°C 16.9°F-8.4°C 23% 4.9 mph SW7.9 kmh SW 6.0 mph9.7 kmh -338605.1 mb 0.00 in0.0 mm 0.00 in/hr0.0 mm/hr 0.00 in0.0 mm
03:27 AM 53.8°F12.1°C 16.9°F-8.4°C 23% 4.9 mph SW7.9 kmh SW 6.0 mph9.7 kmh -338605.1 mb 0.00 in0.0 mm 0.00 in/hr0.0 mm/hr 0.00 in0.0 mm
03:32 AM 54.0°F12.2°C 17.1°F-8.3°C 23% 4.9 mph SW7.9 kmh SW 4.0 mph6.4 kmh -338605.1 mb 0.00 in0.0 mm 0.00 in/hr0.0 mm/hr 0.00 in0.0 mm
03:37 AM 54.0°F12.2°C 17.1°F-8.3°C 23% 4.0 mph SW6.4 kmh SW 6.0 mph9.7 kmh -338605.1 mb 0.00 in0.0 mm 0.00 in/hr0.0 mm/hr 0.00 in0.0 mm
03:42 AM 54.0°F12.2°C 17.1°F-8.3°C 23% 4.0 mph SW6.4 kmh SW 2.9 mph4.7 kmh -338605.1 mb 0.00 in0.0 mm 0.00 in/hr0.0 mm/hr 0.00 in0.0 mm
03:47 AM 54.0°F12.2°C 17.1°F-8.3°C 23% 4.0 mph SW6.4 kmh SW 4.0 mph6.4 kmh -338605.1 mb 0.00 in0.0 mm 0.00 in/hr0.0 mm/hr 0.00 in0.0 mm
03:52 AM 54.0°F12.2°C 17.1°F-8.3°C 23% 4.9 mph WSW7.9 kmh WSW 4.0 mph6.4 kmh -338605.1 mb 0.00 in0.0 mm 0.00 in/hr0.0 mm/hr 0.00 in0.0 mm
03:57 AM 54.0°F12.2°C 17.1°F-8.3°C 23% 4.0 mph WSW6.4 kmh WSW 4.0 mph6.4 kmh -338605.1 mb 0.00 in0.0 mm 0.00 in/hr0.0 mm/hr 0.00 in0.0 mm
04:02 AM 54.0°F12.2°C 16.0°F-8.9°C 22% 4.0 mph SW6.4 kmh SW 0.9 mph1.4 kmh -338605.1 mb 0.00 in0.0 mm 0.00 in/hr0.0 mm/hr 0.00 in0.0 mm
04:07 AM 54.0°F12.2°C 17.1°F-8.3°C 23% 4.9 mph SW7.9 kmh SW 4.9 mph7.9 kmh -338605.1 mb 0.00 in0.0 mm 0.00 in/hr0.0 mm/hr 0.00 in0.0 mm
04:12 AM 54.0°F12.2°C 17.1°F-8.3°C 23% 4.9 mph WSW7.9 kmh WSW 6.0 mph9.7 kmh -338605.1 mb 0.00 in0.0 mm 0.00 in/hr0.0 mm/hr 0.00 in0.0 mm
04:17 AM 53.8°F12.1°C 16.9°F-8.4°C 23% 6.0 mph SW9.7 kmh SW 2.9 mph4.7 kmh -338605.1 mb 0.00 in0.0 mm 0.00 in/hr0.0 mm/hr 0.00 in0.0 mm
04:22 AM 53.8°F12.1°C 16.9°F-8.4°C 23% 4.9 mph WSW7.9 kmh WSW 2.9 mph4.7 kmh -338605.1 mb 0.00 in0.0 mm 0.00 in/hr0.0 mm/hr 0.00 in0.0 mm
04:27 AM 53.8°F12.1°C 16.9°F-8.4°C 23% 4.0 mph SW6.4 kmh SW 2.0 mph3.2 kmh -338605.1 mb 0.00 in0.0 mm 0.00 in/hr0.0 mm/hr 0.00 in0.0 mm
04:32 AM 53.8°F12.1°C 16.9°F-8.4°C 23% 4.0 mph SW6.4 kmh SW 2.9 mph4.7 kmh -338605.1 mb 0.00 in0.0 mm 0.00 in/hr0.0 mm/hr 0.00 in0.0 mm
04:37 AM 53.4°F11.9°C 16.5°F-8.6°C 23% 4.0 mph SW6.4 kmh SW 2.9 mph4.7 kmh -338605.1 mb 0.00 in0.0 mm 0.00 in/hr0.0 mm/hr 0.00 in0.0 mm
04:42 AM 53.4°F11.9°C 16.5°F-8.6°C 23% 4.0 mph WSW6.4 kmh WSW 6.0 mph9.7 kmh -338605.1 mb 0.00 in0.0 mm 0.00 in/hr0.0 mm/hr 0.00 in0.0 mm
04:47 AM 53.2°F11.8°C 16.3°F-8.7°C 23% 4.9 mph SW7.9 kmh SW 2.9 mph4.7 kmh -338605.1 mb 0.00 in0.0 mm 0.00 in/hr0.0 mm/hr 0.00 in0.0 mm
04:52 AM 53.2°F11.8°C 15.4°F-9.2°C 22% 4.0 mph SW6.4 kmh SW 2.9 mph4.7 kmh -338605.1 mb 0.00 in0.0 mm 0.00 in/hr0.0 mm/hr 0.00 in0.0 mm
04:57 AM 53.1°F11.7°C 15.3°F-9.3°C 22% 2.9 mph SW4.7 kmh SW 4.0 mph6.4 kmh -338605.1 mb 0.00 in0.0 mm 0.00 in/hr0.0 mm/hr 0.00 in0.0 mm
05:02 AM 53.1°F11.7°C 15.3°F-9.3°C 22% 4.0 mph SW6.4 kmh SW 4.9 mph7.9 kmh -338605.1 mb 0.00 in0.0 mm 0.00 in/hr0.0 mm/hr 0.00 in0.0 mm
05:07 AM 52.9°F11.6°C 15.1°F-9.4°C 22% 4.0 mph SW6.4 kmh SW 6.9 mph11.1 kmh -338605.1 mb 0.00 in0.0 mm 0.00 in/hr0.0 mm/hr 0.00 in0.0 mm
05:12 AM 52.9°F11.6°C 16.2°F-8.8°C 23% 4.0 mph SW6.4 kmh SW 0.9 mph1.4 kmh -338605.1 mb 0.00 in0.0 mm 0.00 in/hr0.0 mm/hr 0.00 in0.0 mm
05:17 AM 52.7°F11.5°C 14.9°F-9.5°C 22% 4.0 mph SW6.4 kmh SW 4.0 mph6.4 kmh -338605.1 mb 0.00 in0.0 mm 0.00 in/hr0.0 mm/hr 0.00 in0.0 mm
05:22 AM 52.5°F11.4°C 14.7°F-9.6°C 22% 4.9 mph SW7.9 kmh SW 4.9 mph7.9 kmh -338605.1 mb 0.00 in0.0 mm 0.00 in/hr0.0 mm/hr 0.00 in0.0 mm
05:27 AM 52.5°F11.4°C 15.8°F-9.0°C 23% 4.0 mph SW6.4 kmh SW 4.0 mph6.4 kmh -338605.1 mb 0.00 in0.0 mm 0.00 in/hr0.0 mm/hr 0.00 in0.0 mm
05:32 AM 52.5°F11.4°C 14.7°F-9.6°C 22% 4.9 mph SW7.9 kmh SW 6.0 mph9.7 kmh -338605.1 mb 0.00 in0.0 mm 0.00 in/hr0.0 mm/hr 0.00 in0.0 mm
05:37 AM 52.5°F11.4°C 14.7°F-9.6°C 22% 6.0 mph SW9.7 kmh SW 6.0 mph9.7 kmh -338605.1 mb 0.00 in0.0 mm 0.00 in/hr0.0 mm/hr 0.00 in0.0 mm
05:42 AM 52.5°F11.4°C 14.7°F-9.6°C 22% 6.0 mph WSW9.7 kmh WSW 2.9 mph4.7 kmh -338605.1 mb 0.00 in0.0 mm 0.00 in/hr0.0 mm/hr 0.00 in0.0 mm
05:47 AM 52.5°F11.4°C 15.8°F-9.0°C 23% 6.0 mph SW9.7 kmh SW 4.9 mph7.9 kmh -338605.1 mb 0.00 in0.0 mm 0.00 in/hr0.0 mm/hr 0.00 in0.0 mm
05:52 AM 52.5°F11.4°C 15.8°F-9.0°C 23% 6.0 mph SW9.7 kmh SW 6.9 mph11.1 kmh -338605.1 mb 0.00 in0.0 mm 0.00 in/hr0.0 mm/hr 0.00 in0.0 mm
05:57 AM 52.5°F11.4°C 15.8°F-9.0°C 23% 6.0 mph SW9.7 kmh SW 6.9 mph11.1 kmh -338605.1 mb 0.00 in0.0 mm 0.00 in/hr0.0 mm/hr 0.00 in0.0 mm
06:02 AM 52.3°F11.3°C 15.6°F-9.1°C 23% 6.9 mph WSW11.1 kmh WSW 6.0 mph9.7 kmh -338605.1 mb 0.00 in0.0 mm 0.00 in/hr0.0 mm/hr 0.00 in0.0 mm
06:07 AM 52.3°F11.3°C 14.5°F-9.7°C 22% 6.9 mph SSW11.1 kmh SSW 4.0 mph6.4 kmh -338605.1 mb 0.00 in0.0 mm 0.00 in/hr0.0 mm/hr 0.00 in0.0 mm
06:12 AM 52.3°F11.3°C 14.5°F-9.7°C 22% 6.9 mph SW11.1 kmh SW 8.1 mph13.0 kmh -338605.1 mb 0.00 in0.0 mm 0.00 in/hr0.0 mm/hr 0.00 in0.0 mm
06:17 AM 52.3°F11.3°C 15.6°F-9.1°C 23% 6.9 mph SW11.1 kmh SW 6.9 mph11.1 kmh -338605.1 mb 0.00 in0.0 mm 0.00 in/hr0.0 mm/hr 0.00 in0.0 mm
06:22 AM 52.3°F11.3°C 15.6°F-9.1°C 23% 6.9 mph SW11.1 kmh SW 4.9 mph7.9 kmh -338605.1 mb 0.00 in0.0 mm 0.00 in/hr0.0 mm/hr 0.00 in0.0 mm
06:27 AM 52.5°F11.4°C 15.8°F-9.0°C 23% 6.0 mph SW9.7 kmh SW 4.9 mph7.9 kmh -338605.1 mb 0.00 in0.0 mm 0.00 in/hr0.0 mm/hr 0.00 in0.0 mm
06:32 AM 52.9°F11.6°C 15.1°F-9.4°C 22% 6.0 mph SSW9.7 kmh SSW 4.0 mph6.4 kmh -338605.1 mb 0.00 in0.0 mm 0.00 in/hr0.0 mm/hr 0.00 in0.0 mm
06:37 AM 52.9°F11.6°C 15.1°F-9.4°C 22% 6.0 mph SW9.7 kmh SW 6.0 mph9.7 kmh -338605.1 mb 0.00 in0.0 mm 0.00 in/hr0.0 mm/hr 0.00 in0.0 mm
06:42 AM 53.1°F11.7°C 15.3°F-9.3°C 22% 6.0 mph SW9.7 kmh SW 6.0 mph9.7 kmh -338605.1 mb 0.00 in0.0 mm 0.00 in/hr0.0 mm/hr 0.00 in0.0 mm
06:47 AM 53.2°F11.8°C 16.3°F-8.7°C 23% 4.9 mph WSW7.9 kmh WSW 4.9 mph7.9 kmh -338605.1 mb 0.00 in0.0 mm 0.00 in/hr0.0 mm/hr 0.00 in0.0 mm
06:52 AM 53.6°F12.0°C 16.7°F-8.5°C 23% 4.9 mph SW7.9 kmh SW 6.0 mph9.7 kmh -338605.1 mb 0.00 in0.0 mm 0.00 in/hr0.0 mm/hr 0.00 in0.0 mm
06:57 AM 54.0°F12.2°C 16.0°F-8.9°C 22% 6.0 mph WSW9.7 kmh WSW 2.0 mph3.2 kmh -338605.1 mb 0.00 in0.0 mm 0.00 in/hr0.0 mm/hr 0.00 in0.0 mm
07:02 AM 54.3°F12.4°C 16.3°F-8.7°C 22% 6.0 mph WSW9.7 kmh WSW 2.0 mph3.2 kmh -338605.1 mb 0.00 in0.0 mm 0.00 in/hr0.0 mm/hr 0.00 in0.0 mm
07:07 AM 54.9°F12.7°C 15.6°F-9.1°C 21% 6.0 mph WSW9.7 kmh WSW 6.9 mph11.1 kmh -338605.1 mb 0.00 in0.0 mm 0.00 in/hr0.0 mm/hr 0.00 in0.0 mm
07:12 AM 55.2°F12.9°C 17.1°F-8.3°C 22% 6.9 mph WSW11.1 kmh WSW 4.9 mph7.9 kmh -338605.1 mb 0.00 in0.0 mm 0.00 in/hr0.0 mm/hr 0.00 in0.0 mm
07:17 AM 55.6°F13.1°C 16.2°F-8.8°C 21% 6.9 mph WSW11.1 kmh WSW 4.0 mph6.4 kmh -338605.1 mb 0.00 in0.0 mm 0.00 in/hr0.0 mm/hr 0.00 in0.0 mm
07:22 AM 55.9°F13.3°C 16.5°F-8.6°C 21% 4.9 mph SW7.9 kmh SW 0.9 mph1.4 kmh -338605.1 mb 0.00 in0.0 mm 0.00 in/hr0.0 mm/hr 0.00 in0.0 mm
07:27 AM 56.5°F13.6°C 17.1°F-8.3°C 21% 4.0 mph WSW6.4 kmh WSW 4.0 mph6.4 kmh -338605.1 mb 0.00 in0.0 mm 0.00 in/hr0.0 mm/hr 0.00 in0.0 mm
07:32 AM 56.8°F13.8°C 16.2°F-8.8°C 20% 4.0 mph WSW6.4 kmh WSW 6.0 mph9.7 kmh -338605.1 mb 0.00 in0.0 mm 0.00 in/hr0.0 mm/hr 0.00 in0.0 mm
07:37 AM 57.6°F14.2°C 18.0°F-7.8°C 21% 4.0 mph WSW6.4 kmh WSW 2.9 mph4.7 kmh -338605.1 mb 0.00 in0.0 mm 0.00 in/hr0.0 mm/hr 0.00 in0.0 mm
07:42 AM 57.6°F14.2°C 16.7°F-8.5°C 20% 4.9 mph WSW7.9 kmh WSW 6.0 mph9.7 kmh -338605.1 mb 0.00 in0.0 mm 0.00 in/hr0.0 mm/hr 0.00 in0.0 mm
07:47 AM 57.9°F14.4°C 17.1°F-8.3°C 20% 4.9 mph W7.9 kmh W 4.0 mph6.4 kmh -338605.1 mb 0.00 in0.0 mm 0.00 in/hr0.0 mm/hr 0.00 in0.0 mm
07:52 AM 57.9°F14.4°C 17.1°F-8.3°C 20% 4.9 mph WNW7.9 kmh WNW 4.9 mph7.9 kmh -338605.1 mb 0.00 in0.0 mm 0.00 in/hr0.0 mm/hr 0.00 in0.0 mm
07:57 AM 58.1°F14.5°C 18.3°F-7.6°C 21% 4.9 mph WSW7.9 kmh WSW 8.1 mph13.0 kmh -338605.1 mb 0.00 in0.0 mm 0.00 in/hr0.0 mm/hr 0.00 in0.0 mm
08:02 AM 58.3°F14.6°C 17.4°F-8.1°C 20% 6.0 mph WSW9.7 kmh WSW 4.9 mph7.9 kmh -338605.1 mb 0.00 in0.0 mm 0.00 in/hr0.0 mm/hr 0.00 in0.0 mm
08:07 AM 58.3°F14.6°C 17.4°F-8.1°C 20% 6.0 mph WNW9.7 kmh WNW 6.0 mph9.7 kmh -338605.1 mb 0.00 in0.0 mm 0.00 in/hr0.0 mm/hr 0.00 in0.0 mm
08:12 AM 58.3°F14.6°C 17.4°F-8.1°C 20% 6.0 mph WNW9.7 kmh WNW 6.0 mph9.7 kmh -338605.1 mb 0.00 in0.0 mm 0.00 in/hr0.0 mm/hr 0.00 in0.0 mm
08:17 AM 58.5°F14.7°C 17.6°F-8.0°C 20% 6.0 mph NW9.7 kmh NW 6.9 mph11.1 kmh -338605.1 mb 0.00 in0.0 mm 0.00 in/hr0.0 mm/hr 0.00 in0.0 mm
08:22 AM 58.5°F14.7°C 17.6°F-8.0°C 20% 6.0 mph NW9.7 kmh NW 6.9 mph11.1 kmh -338605.1 mb 0.00 in0.0 mm 0.00 in/hr0.0 mm/hr 0.00 in0.0 mm
08:27 AM 58.5°F14.7°C 18.7°F-7.4°C 21% 6.0 mph NW9.7 kmh NW 4.0 mph6.4 kmh -338605.1 mb 0.00 in0.0 mm 0.00 in/hr0.0 mm/hr 0.00 in0.0 mm
08:32 AM 58.6°F14.8°C 18.9°F-7.3°C 21% 4.9 mph N7.9 kmh N 4.0 mph6.4 kmh -338605.1 mb 0.00 in0.0 mm 0.00 in/hr0.0 mm/hr 0.00 in0.0 mm
08:37 AM 58.6°F14.8°C 18.9°F-7.3°C 21% 2.9 mph N4.7 kmh N 0.9 mph1.4 kmh -338605.1 mb 0.00 in0.0 mm 0.00 in/hr0.0 mm/hr 0.00 in0.0 mm
08:42 AM 59.2°F15.1°C 19.2°F-7.1°C 21% 2.9 mph N4.7 kmh N 2.0 mph3.2 kmh -338605.1 mb 0.00 in0.0 mm 0.00 in/hr0.0 mm/hr 0.00 in0.0 mm
08:47 AM 59.4°F15.2°C 19.4°F-7.0°C 21% 2.0 mph N3.2 kmh N 4.0 mph6.4 kmh -338605.1 mb 0.00 in0.0 mm 0.00 in/hr0.0 mm/hr 0.00 in0.0 mm
08:52 AM 59.7°F15.4°C 18.5°F-7.5°C 20% 2.0 mph N3.2 kmh N 2.9 mph4.7 kmh -338605.1 mb 0.00 in0.0 mm 0.00 in/hr0.0 mm/hr 0.00 in0.0 mm
08:57 AM 59.7°F15.4°C 18.5°F-7.5°C 20% 2.9 mph N4.7 kmh N 2.9 mph4.7 kmh -338605.1 mb 0.00 in0.0 mm 0.00 in/hr0.0 mm/hr 0.00 in0.0 mm
09:02 AM 60.1°F15.6°C 18.9°F-7.3°C 20% 2.0 mph N3.2 kmh N 2.0 mph3.2 kmh -338605.1 mb 0.00 in0.0 mm 0.00 in/hr0.0 mm/hr 0.00 in0.0 mm
09:07 AM 60.1°F15.6°C 18.9°F-7.3°C 20% 2.0 mph 3.2 kmh 4.0 mph6.4 kmh -338605.1 mb 0.00 in0.0 mm 0.00 in/hr0.0 mm/hr 0.00 in0.0 mm
09:12 AM 60.4°F15.8°C 19.2°F-7.1°C 20% 2.9 mph NNE4.7 kmh NNE 2.9 mph4.7 kmh -338605.1 mb 0.00 in0.0 mm 0.00 in/hr0.0 mm/hr 0.00 in0.0 mm
09:17 AM 61.2°F16.2°C 18.5°F-7.5°C 19% 4.0 mph NNE6.4 kmh NNE 2.9 mph4.7 kmh -338605.1 mb 0.00 in0.0 mm 0.00 in/hr0.0 mm/hr 0.00 in0.0 mm
09:22 AM 61.9°F16.6°C 19.2°F-7.1°C 19% 4.0 mph NE6.4 kmh NE 4.0 mph6.4 kmh -338605.1 mb 0.00 in0.0 mm 0.00 in/hr0.0 mm/hr 0.00 in0.0 mm
09:27 AM 62.1°F16.7°C 18.0°F-7.8°C 18% 4.0 mph NE6.4 kmh NE 4.0 mph6.4 kmh -338605.1 mb 0.00 in0.0 mm 0.00 in/hr0.0 mm/hr 0.00 in0.0 mm
09:32 AM 63.3°F17.4°C 19.0°F-7.2°C 18% 4.0 mph NNE6.4 kmh NNE 2.0 mph3.2 kmh -338605.1 mb 0.00 in0.0 mm 0.00 in/hr0.0 mm/hr 0.00 in0.0 mm
09:37 AM 63.3°F17.4°C 17.8°F-7.9°C 17% 4.9 mph N7.9 kmh N 4.9 mph7.9 kmh -338605.1 mb 0.00 in0.0 mm 0.00 in/hr0.0 mm/hr 0.00 in0.0 mm
09:42 AM 63.3°F17.4°C 17.8°F-7.9°C 17% 4.9 mph NE7.9 kmh NE 6.0 mph9.7 kmh -338605.1 mb 0.00 in0.0 mm 0.00 in/hr0.0 mm/hr 0.00 in0.0 mm
09:47 AM 63.7°F17.6°C 18.0°F-7.8°C 17% 6.0 mph NNE9.7 kmh NNE 4.0 mph6.4 kmh -338605.1 mb 0.00 in0.0 mm 0.00 in/hr0.0 mm/hr 0.00 in0.0 mm
09:52 AM 64.0°F17.8°C 18.3°F-7.6°C 17% 6.0 mph E9.7 kmh E 6.0 mph9.7 kmh -338605.1 mb 0.00 in0.0 mm 0.00 in/hr0.0 mm/hr 0.00 in0.0 mm
09:57 AM 64.9°F18.3°C 17.6°F-8.0°C 16% 4.9 mph NNE7.9 kmh NNE 4.9 mph7.9 kmh -338605.1 mb 0.00 in0.0 mm 0.00 in/hr0.0 mm/hr 0.00 in0.0 mm
10:02 AM 65.1°F18.4°C 16.3°F-8.7°C 15% 4.9 mph NE7.9 kmh NE 6.0 mph9.7 kmh -338605.1 mb 0.00 in0.0 mm 0.00 in/hr0.0 mm/hr 0.00 in0.0 mm
10:07 AM 64.9°F18.3°C 16.2°F-8.8°C 15% 6.0 mph NE9.7 kmh NE 4.0 mph6.4 kmh -338605.1 mb 0.00 in0.0 mm 0.00 in/hr0.0 mm/hr 0.00 in0.0 mm
10:12 AM 65.1°F18.4°C 16.3°F-8.7°C 15% 4.9 mph N7.9 kmh N 8.1 mph13.0 kmh -338605.1 mb 0.00 in0.0 mm 0.00 in/hr0.0 mm/hr 0.00 in0.0 mm
10:17 AM 65.5°F18.6°C 16.5°F-8.6°C 15% 4.0 mph N6.4 kmh N 2.9 mph4.7 kmh -338605.1 mb 0.00 in0.0 mm 0.00 in/hr0.0 mm/hr 0.00 in0.0 mm
10:22 AM 66.4°F19.1°C 17.2°F-8.2°C 15% 4.0 mph ENE6.4 kmh ENE 2.9 mph4.7 kmh -338605.1 mb 0.00 in0.0 mm 0.00 in/hr0.0 mm/hr 0.00 in0.0 mm
10:27 AM 66.6°F19.2°C 15.8°F-9.0°C 14% 4.0 mph N6.4 kmh N 4.0 mph6.4 kmh -338605.1 mb 0.00 in0.0 mm 0.00 in/hr0.0 mm/hr 0.00 in0.0 mm
10:32 AM 66.6°F19.2°C 15.8°F-9.0°C 14% 2.9 mph N4.7 kmh N 0.9 mph1.4 kmh -338605.1 mb 0.00 in0.0 mm 0.00 in/hr0.0 mm/hr 0.00 in0.0 mm
10:37 AM 67.5°F19.7°C 18.1°F-7.7°C 15% 2.9 mph NE4.7 kmh NE 4.9 mph7.9 kmh -338605.1 mb 0.00 in0.0 mm 0.00 in/hr0.0 mm/hr 0.00 in0.0 mm
10:42 AM 68.4°F20.2°C 15.6°F-9.1°C 13% 4.9 mph NE7.9 kmh NE 6.0 mph9.7 kmh -338605.1 mb 0.00 in0.0 mm 0.00 in/hr0.0 mm/hr 0.00 in0.0 mm
10:47 AM 68.5°F20.3°C 15.8°F-9.0°C 13% 6.0 mph NE9.7 kmh NE 2.0 mph3.2 kmh -338605.1 mb 0.00 in0.0 mm 0.00 in/hr0.0 mm/hr 0.00 in0.0 mm
10:52 AM 68.4°F20.2°C 15.6°F-9.1°C 13% 2.9 mph NE4.7 kmh NE 2.9 mph4.7 kmh -338605.1 mb 0.00 in0.0 mm 0.00 in/hr0.0 mm/hr 0.00 in0.0 mm
10:57 AM 68.4°F20.2°C 15.6°F-9.1°C 13% 2.0 mph SE3.2 kmh SE -- -338605.1 mb 0.00 in0.0 mm 0.00 in/hr0.0 mm/hr 0.00 in0.0 mm
11:02 AM 69.1°F20.6°C 16.2°F-8.8°C 13% 2.9 mph NE4.7 kmh NE 6.9 mph11.1 kmh -338605.1 mb 0.00 in0.0 mm 0.00 in/hr0.0 mm/hr 0.00 in0.0 mm
11:07 AM 70.0°F21.1°C 16.9°F-8.4°C 13% 6.0 mph SE9.7 kmh SE 2.0 mph3.2 kmh -338605.1 mb 0.00 in0.0 mm 0.00 in/hr0.0 mm/hr 0.00 in0.0 mm
11:12 AM 70.3°F21.3°C 15.3°F-9.3°C 12% 4.9 mph E7.9 kmh E -- -338605.1 mb 0.00 in0.0 mm 0.00 in/hr0.0 mm/hr 0.00 in0.0 mm
11:17 AM 70.0°F21.1°C 16.9°F-8.4°C 13% 4.0 mph ESE6.4 kmh ESE 6.9 mph11.1 kmh -338605.1 mb 0.00 in0.0 mm 0.00 in/hr0.0 mm/hr 0.00 in0.0 mm
11:22 AM 70.0°F21.1°C 16.9°F-8.4°C 13% 4.0 mph SE6.4 kmh SE -- -338605.1 mb 0.00 in0.0 mm 0.00 in/hr0.0 mm/hr 0.00 in0.0 mm
11:27 AM 69.3°F20.7°C 16.3°F-8.7°C 13% 2.0 mph SE3.2 kmh SE 2.0 mph3.2 kmh -338605.1 mb 0.00 in0.0 mm 0.00 in/hr0.0 mm/hr 0.00 in0.0 mm
11:32 AM 70.3°F21.3°C 15.3°F-9.3°C 12% 2.9 mph ENE4.7 kmh ENE 0.9 mph1.4 kmh -338605.1 mb 0.00 in0.0 mm 0.00 in/hr0.0 mm/hr 0.00 in0.0 mm
11:37 AM 70.5°F21.4°C 17.2°F-8.2°C 13% 4.0 mph S6.4 kmh S 8.9 mph14.3 kmh -338605.1 mb 0.00 in0.0 mm 0.00 in/hr0.0 mm/hr 0.00 in0.0 mm
11:42 AM 70.7°F21.5°C 15.6°F-9.1°C 12% 2.9 mph SSE4.7 kmh SSE 0.9 mph1.4 kmh -338605.1 mb 0.00 in0.0 mm 0.00 in/hr0.0 mm/hr 0.00 in0.0 mm
11:47 AM 71.2°F21.8°C 16.0°F-8.9°C 12% 2.9 mph SW4.7 kmh SW 2.0 mph3.2 kmh -338605.1 mb 0.00 in0.0 mm 0.00 in/hr0.0 mm/hr 0.00 in0.0 mm
11:52 AM 72.0°F22.2°C 16.5°F-8.6°C 12% 2.9 mph E4.7 kmh E 6.9 mph11.1 kmh -338605.1 mb 0.00 in0.0 mm 0.00 in/hr0.0 mm/hr 0.00 in0.0 mm
11:57 AM 72.3°F22.4°C 14.9°F-9.5°C 11% 4.0 mph E6.4 kmh E 0.9 mph1.4 kmh -338605.1 mb 0.00 in0.0 mm 0.00 in/hr0.0 mm/hr 0.00 in0.0 mm
12:02 PM 71.8°F22.1°C 14.4°F-9.8°C 11% 2.9 mph E4.7 kmh E 2.0 mph3.2 kmh -338605.1 mb 0.00 in0.0 mm 0.00 in/hr0.0 mm/hr 0.00 in0.0 mm
12:07 PM 72.0°F22.2°C 14.5°F-9.7°C 11% 4.0 mph E6.4 kmh E 6.9 mph11.1 kmh -338605.1 mb 0.00 in0.0 mm 0.00 in/hr0.0 mm/hr 0.00 in0.0 mm
12:12 PM 71.8°F22.1°C 14.4°F-9.8°C 11% 6.0 mph ENE9.7 kmh ENE 6.9 mph11.1 kmh -338605.1 mb 0.00 in0.0 mm 0.00 in/hr0.0 mm/hr 0.00 in0.0 mm
12:17 PM 72.1°F22.3°C 14.7°F-9.6°C 11% 4.9 mph E7.9 kmh E 4.0 mph6.4 kmh -338605.1 mb 0.00 in0.0 mm 0.00 in/hr0.0 mm/hr 0.00 in0.0 mm
12:22 PM 72.7°F22.6°C 15.1°F-9.4°C 11% 4.9 mph E7.9 kmh E 0.9 mph1.4 kmh -338605.1 mb 0.00 in0.0 mm 0.00 in/hr0.0 mm/hr 0.00 in0.0 mm
12:27 PM 72.7°F22.6°C 15.1°F-9.4°C 11% 2.9 mph E4.7 kmh E 2.9 mph4.7 kmh -338605.1 mb 0.00 in0.0 mm 0.00 in/hr0.0 mm/hr 0.00 in0.0 mm
12:32 PM 72.7°F22.6°C 12.9°F-10.6°C 10% 2.9 mph NW4.7 kmh NW 4.9 mph7.9 kmh -338605.1 mb 0.00 in0.0 mm 0.00 in/hr0.0 mm/hr 0.00 in0.0 mm
12:37 PM 72.1°F22.3°C 14.7°F-9.6°C 11% 4.0 mph NW6.4 kmh NW 0.9 mph1.4 kmh -338605.1 mb 0.00 in0.0 mm 0.00 in/hr0.0 mm/hr 0.00 in0.0 mm
12:42 PM 72.1°F22.3°C 14.7°F-9.6°C 11% 2.9 mph NW4.7 kmh NW 4.0 mph6.4 kmh -338605.1 mb 0.00 in0.0 mm 0.00 in/hr0.0 mm/hr 0.00 in0.0 mm
12:47 PM 72.3°F22.4°C 14.9°F-9.5°C 11% 2.9 mph NE4.7 kmh NE 6.0 mph9.7 kmh -338605.1 mb 0.00 in0.0 mm 0.00 in/hr0.0 mm/hr 0.00 in0.0 mm
12:52 PM 72.3°F22.4°C 14.9°F-9.5°C 11% 4.0 mph 6.4 kmh 4.9 mph7.9 kmh -338605.1 mb 0.00 in0.0 mm 0.00 in/hr0.0 mm/hr 0.00 in0.0 mm
12:57 PM 72.1°F22.3°C 14.7°F-9.6°C 11% 4.0 mph NNE6.4 kmh NNE 0.9 mph1.4 kmh -338605.1 mb 0.00 in0.0 mm 0.00 in/hr0.0 mm/hr 0.00 in0.0 mm
01:02 PM 72.9°F22.7°C 15.3°F-9.3°C 11% 2.0 mph E3.2 kmh E -- -338605.1 mb 0.00 in0.0 mm 0.00 in/hr0.0 mm/hr 0.00 in0.0 mm
01:07 PM 72.9°F22.7°C 15.3°F-9.3°C 11% 0.9 mph W1.4 kmh W 4.0 mph6.4 kmh -338605.1 mb 0.00 in0.0 mm 0.00 in/hr0.0 mm/hr 0.00 in0.0 mm
01:12 PM 73.4°F23.0°C 15.6°F-9.1°C 11% 2.0 mph E3.2 kmh E 4.9 mph7.9 kmh -338605.1 mb 0.00 in0.0 mm 0.00 in/hr0.0 mm/hr 0.00 in0.0 mm
01:17 PM 73.9°F23.3°C 16.2°F-8.8°C 11% 2.9 mph SE4.7 kmh SE 4.0 mph6.4 kmh -338605.1 mb 0.00 in0.0 mm 0.00 in/hr0.0 mm/hr 0.00 in0.0 mm
01:22 PM 74.8°F23.8°C 16.9°F-8.4°C 11% 4.9 mph ESE7.9 kmh ESE 8.9 mph14.3 kmh -338605.1 mb 0.00 in0.0 mm 0.00 in/hr0.0 mm/hr 0.00 in0.0 mm
01:27 PM 75.4°F24.1°C 15.1°F-9.4°C 10% 6.9 mph E11.1 kmh E 4.9 mph7.9 kmh -338605.1 mb 0.00 in0.0 mm 0.00 in/hr0.0 mm/hr 0.00 in0.0 mm
01:32 PM 75.4°F24.1°C 12.6°F-10.8°C 9% 6.9 mph E11.1 kmh E 6.0 mph9.7 kmh -338605.1 mb 0.00 in0.0 mm 0.00 in/hr0.0 mm/hr 0.00 in0.0 mm
01:37 PM 75.6°F24.2°C 15.1°F-9.4°C 10% 6.9 mph SE11.1 kmh SE 6.0 mph9.7 kmh -338605.1 mb 0.00 in0.0 mm 0.00 in/hr0.0 mm/hr 0.00 in0.0 mm
01:42 PM 75.6°F24.2°C 15.1°F-9.4°C 10% 6.0 mph SW9.7 kmh SW 4.0 mph6.4 kmh -338605.1 mb 0.00 in0.0 mm 0.00 in/hr0.0 mm/hr 0.00 in0.0 mm
01:47 PM 75.0°F23.9°C 12.4°F-10.9°C 9% 2.9 mph S4.7 kmh S 2.0 mph3.2 kmh -338605.1 mb 0.00 in0.0 mm 0.00 in/hr0.0 mm/hr 0.00 in0.0 mm
01:52 PM 75.4°F24.1°C 12.6°F-10.8°C 9% 2.9 mph E4.7 kmh E 2.0 mph3.2 kmh -338605.1 mb 0.00 in0.0 mm 0.00 in/hr0.0 mm/hr 0.00 in0.0 mm
01:57 PM 75.6°F24.2°C 12.7°F-10.7°C 9% 2.9 mph E4.7 kmh E -- -338605.1 mb 0.00 in0.0 mm 0.00 in/hr0.0 mm/hr 0.00 in0.0 mm
02:02 PM 75.9°F24.4°C 13.1°F-10.5°C 9% 2.0 mph SW3.2 kmh SW 2.0 mph3.2 kmh -338605.1 mb 0.00 in0.0 mm 0.00 in/hr0.0 mm/hr 0.00 in0.0 mm
02:07 PM 75.9°F24.4°C 13.1°F-10.5°C 9% 2.0 mph NW3.2 kmh NW 4.0 mph6.4 kmh -338605.1 mb 0.00 in0.0 mm 0.00 in/hr0.0 mm/hr 0.00 in0.0 mm
02:12 PM 75.9°F24.4°C 15.4°F-9.2°C 10% 2.9 mph WSW4.7 kmh WSW 8.1 mph13.0 kmh -338605.1 mb 0.00 in0.0 mm 0.00 in/hr0.0 mm/hr 0.00 in0.0 mm
02:17 PM 75.6°F24.2°C 12.7°F-10.7°C 9% 4.0 mph W6.4 kmh W -- -338605.1 mb 0.00 in0.0 mm 0.00 in/hr0.0 mm/hr 0.00 in0.0 mm
02:22 PM 75.6°F24.2°C 15.1°F-9.4°C 10% 2.9 mph 4.7 kmh 4.0 mph6.4 kmh -338605.1 mb 0.00 in0.0 mm 0.00 in/hr0.0 mm/hr 0.00 in0.0 mm
02:27 PM 75.4°F24.1°C 12.6°F-10.8°C 9% 2.0 mph WNW3.2 kmh WNW 0.9 mph1.4 kmh -338605.1 mb 0.00 in0.0 mm 0.00 in/hr0.0 mm/hr 0.00 in0.0 mm
02:32 PM 76.1°F24.5°C 13.1°F-10.5°C 9% 2.0 mph NNW3.2 kmh NNW 2.0 mph3.2 kmh -338605.1 mb 0.00 in0.0 mm 0.00 in/hr0.0 mm/hr 0.00 in0.0 mm
02:37 PM 76.6°F24.8°C 13.6°F-10.2°C 9% 2.0 mph S3.2 kmh S 0.9 mph1.4 kmh -338605.1 mb 0.00 in0.0 mm 0.00 in/hr0.0 mm/hr 0.00 in0.0 mm
02:42 PM 77.2°F25.1°C 14.0°F-10.0°C 9% 2.0 mph SE3.2 kmh SE -- -338605.1 mb 0.00 in0.0 mm 0.00 in/hr0.0 mm/hr 0.00 in0.0 mm
02:47 PM 77.4°F25.2°C 14.2°F-9.9°C 9% 2.0 mph NNW3.2 kmh NNW 2.9 mph4.7 kmh -338605.1 mb 0.00 in0.0 mm 0.00 in/hr0.0 mm/hr 0.00 in0.0 mm
02:52 PM 76.6°F24.8°C 13.6°F-10.2°C 9% 4.0 mph W6.4 kmh W 6.0 mph9.7 kmh -338605.1 mb 0.00 in0.0 mm 0.00 in/hr0.0 mm/hr 0.00 in0.0 mm
02:57 PM 75.9°F24.4°C 13.1°F-10.5°C 9% 6.0 mph WSW9.7 kmh WSW 2.9 mph4.7 kmh -338605.1 mb 0.00 in0.0 mm 0.00 in/hr0.0 mm/hr 0.00 in0.0 mm
03:02 PM 76.6°F24.8°C 13.6°F-10.2°C 9% 4.9 mph W7.9 kmh W 2.9 mph4.7 kmh -338605.1 mb 0.00 in0.0 mm 0.00 in/hr0.0 mm/hr 0.00 in0.0 mm
03:07 PM 77.2°F25.1°C 14.0°F-10.0°C 9% 2.9 mph WSW4.7 kmh WSW -- -338605.1 mb 0.00 in0.0 mm 0.00 in/hr0.0 mm/hr 0.00 in0.0 mm
03:12 PM 77.7°F25.4°C 11.7°F-11.3°C 8% 2.9 mph WSW4.7 kmh WSW 2.0 mph3.2 kmh -338605.1 mb 0.00 in0.0 mm 0.00 in/hr0.0 mm/hr 0.00 in0.0 mm
03:17 PM 78.1°F25.6°C 14.7°F-9.6°C 9% 4.0 mph S6.4 kmh S 6.9 mph11.1 kmh -338605.1 mb 0.00 in0.0 mm 0.00 in/hr0.0 mm/hr 0.00 in0.0 mm
03:22 PM 78.3°F25.7°C 12.2°F-11.0°C 8% 4.0 mph SE6.4 kmh SE 2.9 mph4.7 kmh -338605.1 mb 0.00 in0.0 mm 0.00 in/hr0.0 mm/hr 0.00 in0.0 mm
03:27 PM 78.1°F25.6°C 12.0°F-11.1°C 8% 2.9 mph SE4.7 kmh SE -- -338605.1 mb 0.00 in0.0 mm 0.00 in/hr0.0 mm/hr 0.00 in0.0 mm
03:32 PM 77.2°F25.1°C 11.3°F-11.5°C 8% 2.0 mph ESE3.2 kmh ESE -- -338605.1 mb 0.00 in0.0 mm 0.00 in/hr0.0 mm/hr 0.00 in0.0 mm
03:37 PM 77.5°F25.3°C 11.7°F-11.3°C 8% 2.0 mph SE3.2 kmh SE 6.0 mph9.7 kmh -338605.1 mb 0.00 in0.0 mm 0.00 in/hr0.0 mm/hr 0.00 in0.0 mm
03:42 PM 78.1°F25.6°C 12.0°F-11.1°C 8% 4.0 mph E6.4 kmh E 0.9 mph1.4 kmh -338605.1 mb 0.00 in0.0 mm 0.00 in/hr0.0 mm/hr 0.00 in0.0 mm
03:47 PM 78.1°F25.6°C 12.0°F-11.1°C 8% 2.9 mph E4.7 kmh E 4.9 mph7.9 kmh -338605.1 mb 0.00 in0.0 mm 0.00 in/hr0.0 mm/hr 0.00 in0.0 mm
03:52 PM 77.7°F25.4°C 14.4°F-9.8°C 9% 2.9 mph ESE4.7 kmh ESE 8.9 mph14.3 kmh -338605.1 mb 0.00 in0.0 mm 0.00 in/hr0.0 mm/hr 0.00 in0.0 mm
03:57 PM 77.5°F25.3°C 11.7°F-11.3°C 8% 6.0 mph ESE9.7 kmh ESE 2.0 mph3.2 kmh -338605.1 mb 0.00 in0.0 mm 0.00 in/hr0.0 mm/hr 0.00 in0.0 mm
04:02 PM 78.1°F25.6°C 12.0°F-11.1°C 8% 4.9 mph ESE7.9 kmh ESE 4.9 mph7.9 kmh -338605.1 mb 0.00 in0.0 mm 0.00 in/hr0.0 mm/hr 0.00 in0.0 mm
04:07 PM 78.4°F25.8°C 12.2°F-11.0°C 8% 2.9 mph ESE4.7 kmh ESE 2.9 mph4.7 kmh -338605.1 mb 0.00 in0.0 mm 0.00 in/hr0.0 mm/hr 0.00 in0.0 mm
04:12 PM 78.4°F25.8°C 12.2°F-11.0°C 8% 2.0 mph ESE3.2 kmh ESE -- -338605.1 mb 0.00 in0.0 mm 0.00 in/hr0.0 mm/hr 0.00 in0.0 mm
04:17 PM 78.6°F25.9°C 12.4°F-10.9°C 8% 0.9 mph ESE1.4 kmh ESE 0.9 mph1.4 kmh -338605.1 mb 0.00 in0.0 mm 0.00 in/hr0.0 mm/hr 0.00 in0.0 mm
04:22 PM 78.4°F25.8°C 12.2°F-11.0°C 8% 2.0 mph WNW3.2 kmh WNW 2.0 mph3.2 kmh -338605.1 mb 0.00 in0.0 mm 0.00 in/hr0.0 mm/hr 0.00 in0.0 mm
04:27 PM 78.4°F25.8°C 12.2°F-11.0°C 8% 4.0 mph E6.4 kmh E 4.9 mph7.9 kmh -338605.1 mb 0.00 in0.0 mm 0.00 in/hr0.0 mm/hr 0.00 in0.0 mm
04:32 PM 78.1°F25.6°C 12.0°F-11.1°C 8% 4.9 mph ENE7.9 kmh ENE 2.0 mph3.2 kmh -338605.1 mb 0.00 in0.0 mm 0.00 in/hr0.0 mm/hr 0.00 in0.0 mm
04:37 PM 78.1°F25.6°C 12.0°F-11.1°C 8% 4.9 mph SE7.9 kmh SE 2.9 mph4.7 kmh -338605.1 mb 0.00 in0.0 mm 0.00 in/hr0.0 mm/hr 0.00 in0.0 mm
04:42 PM 78.3°F25.7°C 12.2°F-11.0°C 8% 4.9 mph S7.9 kmh S 4.0 mph6.4 kmh -338605.1 mb 0.00 in0.0 mm 0.00 in/hr0.0 mm/hr 0.00 in0.0 mm
04:47 PM 78.3°F25.7°C 12.2°F-11.0°C 8% 4.0 mph NNE6.4 kmh NNE 4.0 mph6.4 kmh -338605.1 mb 0.00 in0.0 mm 0.00 in/hr0.0 mm/hr 0.00 in0.0 mm
04:52 PM 78.3°F25.7°C 12.2°F-11.0°C 8% 4.0 mph ESE6.4 kmh ESE 4.0 mph6.4 kmh -338605.1 mb 0.00 in0.0 mm 0.00 in/hr0.0 mm/hr 0.00 in0.0 mm
04:57 PM 78.4°F25.8°C 12.2°F-11.0°C 8% 4.9 mph E7.9 kmh E 2.0 mph3.2 kmh -338605.1 mb 0.00 in0.0 mm 0.00 in/hr0.0 mm/hr 0.00 in0.0 mm
05:02 PM 78.1°F25.6°C 12.0°F-11.1°C 8% 4.9 mph E7.9 kmh E 6.9 mph11.1 kmh -338605.1 mb 0.00 in0.0 mm 0.00 in/hr0.0 mm/hr 0.00 in0.0 mm
05:07 PM 77.9°F25.5°C 11.8°F-11.2°C 8% 4.0 mph ESE6.4 kmh ESE 4.9 mph7.9 kmh -338605.1 mb 0.00 in0.0 mm 0.00 in/hr0.0 mm/hr 0.00 in0.0 mm
05:12 PM 77.9°F25.5°C 11.8°F-11.2°C 8% 4.9 mph E7.9 kmh E 6.0 mph9.7 kmh -338605.1 mb 0.00 in0.0 mm 0.00 in/hr0.0 mm/hr 0.00 in0.0 mm
05:17 PM 78.1°F25.6°C 9.0°F-12.8°C 7% 4.9 mph ENE7.9 kmh ENE 0.9 mph1.4 kmh -338605.1 mb 0.00 in0.0 mm 0.00 in/hr0.0 mm/hr 0.00 in0.0 mm
05:22 PM 77.5°F25.3°C 11.7°F-11.3°C 8% 2.9 mph NE4.7 kmh NE 4.0 mph6.4 kmh -338605.1 mb 0.00 in0.0 mm 0.00 in/hr0.0 mm/hr 0.00 in0.0 mm
05:27 PM 77.5°F25.3°C 11.7°F-11.3°C 8% 2.9 mph ENE4.7 kmh ENE 2.0 mph3.2 kmh -338605.1 mb 0.00 in0.0 mm 0.00 in/hr0.0 mm/hr 0.00 in0.0 mm
05:32 PM 77.5°F25.3°C 11.7°F-11.3°C 8% 2.9 mph ENE4.7 kmh ENE 4.0 mph6.4 kmh -338605.1 mb 0.00 in0.0 mm 0.00 in/hr0.0 mm/hr 0.00 in0.0 mm
05:37 PM 77.4°F25.2°C 11.5°F-11.4°C 8% 2.0 mph ENE3.2 kmh ENE 2.0 mph3.2 kmh -338605.1 mb 0.00 in0.0 mm 0.00 in/hr0.0 mm/hr 0.00 in0.0 mm
05:42 PM 77.5°F25.3°C 11.7°F-11.3°C 8% 2.0 mph NE3.2 kmh NE 2.9 mph4.7 kmh -338605.1 mb 0.00 in0.0 mm 0.00 in/hr0.0 mm/hr 0.00 in0.0 mm
05:47 PM 77.7°F25.4°C 11.7°F-11.3°C 8% 2.0 mph NNE3.2 kmh NNE -- -338605.1 mb 0.00 in0.0 mm 0.00 in/hr0.0 mm/hr 0.00 in0.0 mm
05:52 PM 77.5°F25.3°C 11.7°F-11.3°C 8% 0.9 mph NNE1.4 kmh NNE 0.9 mph1.4 kmh -338605.1 mb 0.00 in0.0 mm 0.00 in/hr0.0 mm/hr 0.00 in0.0 mm
05:57 PM 77.5°F25.3°C 8.6°F-13.0°C 7% 2.0 mph E3.2 kmh E 6.9 mph11.1 kmh -338605.1 mb 0.00 in0.0 mm 0.00 in/hr0.0 mm/hr 0.00 in0.0 mm
06:02 PM 77.4°F25.2°C 11.5°F-11.4°C 8% 4.0 mph E6.4 kmh E 2.0 mph3.2 kmh -338605.1 mb 0.00 in0.0 mm 0.00 in/hr0.0 mm/hr 0.00 in0.0 mm
06:07 PM 77.2°F25.1°C 8.2°F-13.2°C 7% 4.0 mph ENE6.4 kmh ENE 6.9 mph11.1 kmh -338605.1 mb 0.00 in0.0 mm 0.00 in/hr0.0 mm/hr 0.00 in0.0 mm
06:12 PM 76.8°F24.9°C 11.1°F-11.6°C 8% 4.0 mph N6.4 kmh N 2.0 mph3.2 kmh -338605.1 mb 0.00 in0.0 mm 0.00 in/hr0.0 mm/hr 0.00 in0.0 mm
06:17 PM 76.8°F24.9°C 11.1°F-11.6°C 8% 4.0 mph NE6.4 kmh NE 4.9 mph7.9 kmh -338605.1 mb 0.00 in0.0 mm 0.00 in/hr0.0 mm/hr 0.00 in0.0 mm
06:22 PM 76.6°F24.8°C 10.9°F-11.7°C 8% 4.0 mph NE6.4 kmh NE 4.0 mph6.4 kmh -338605.1 mb 0.00 in0.0 mm 0.00 in/hr0.0 mm/hr 0.00 in0.0 mm
06:27 PM 76.6°F24.8°C 10.9°F-11.7°C 8% 4.9 mph NE7.9 kmh NE 4.0 mph6.4 kmh -338605.1 mb 0.00 in0.0 mm 0.00 in/hr0.0 mm/hr 0.00 in0.0 mm
06:32 PM 76.5°F24.7°C 10.8°F-11.8°C 8% 2.9 mph NE4.7 kmh NE 0.9 mph1.4 kmh -338605.1 mb 0.00 in0.0 mm 0.00 in/hr0.0 mm/hr 0.00 in0.0 mm
06:37 PM 76.3°F24.6°C 15.6°F-9.1°C 10% 2.9 mph WSW4.7 kmh WSW 6.0 mph9.7 kmh -338605.1 mb 0.00 in0.0 mm 0.00 in/hr0.0 mm/hr 0.00 in0.0 mm
06:42 PM 76.1°F24.5°C 13.1°F-10.5°C 9% 4.0 mph SW6.4 kmh SW 2.9 mph4.7 kmh -338605.1 mb 0.00 in0.0 mm 0.00 in/hr0.0 mm/hr 0.00 in0.0 mm
06:47 PM 75.7°F24.3°C 19.6°F-6.9°C 12% 6.0 mph SW9.7 kmh SW 14.1 mph22.7 kmh -338605.1 mb 0.00 in0.0 mm 0.00 in/hr0.0 mm/hr 0.00 in0.0 mm
06:52 PM 75.4°F24.1°C 21.2°F-6.0°C 13% 8.9 mph WSW14.3 kmh WSW 8.1 mph13.0 kmh -338605.1 mb 0.00 in0.0 mm 0.00 in/hr0.0 mm/hr 0.00 in0.0 mm
06:57 PM 74.8°F23.8°C 22.5°F-5.3°C 14% 8.9 mph SW14.3 kmh SW 6.0 mph9.7 kmh -338605.1 mb 0.00 in0.0 mm 0.00 in/hr0.0 mm/hr 0.00 in0.0 mm
07:02 PM 74.5°F23.6°C 22.1°F-5.5°C 14% 6.9 mph S11.1 kmh S 8.1 mph13.0 kmh -338605.1 mb 0.00 in0.0 mm 0.00 in/hr0.0 mm/hr 0.00 in0.0 mm
07:07 PM 73.9°F23.3°C 23.4°F-4.8°C 15% 6.0 mph SW9.7 kmh SW 6.9 mph11.1 kmh -338605.1 mb 0.00 in0.0 mm 0.00 in/hr0.0 mm/hr 0.00 in0.0 mm
07:12 PM 73.2°F22.9°C 22.8°F-5.1°C 15% 6.9 mph WSW11.1 kmh WSW 11.0 mph17.7 kmh -338605.1 mb 0.00 in0.0 mm 0.00 in/hr0.0 mm/hr 0.00 in0.0 mm
07:17 PM 72.9°F22.7°C 22.5°F-5.3°C 15% 8.9 mph WSW14.3 kmh WSW 10.1 mph16.3 kmh -338605.1 mb 0.00 in0.0 mm 0.00 in/hr0.0 mm/hr 0.00 in0.0 mm
07:22 PM 72.1°F22.3°C 21.9°F-5.6°C 15% 11.0 mph SSW17.7 kmh SSW 2.0 mph3.2 kmh -338605.1 mb 0.00 in0.0 mm 0.00 in/hr0.0 mm/hr 0.00 in0.0 mm
07:27 PM 71.8°F22.1°C 23.2°F-4.9°C 16% 11.0 mph SW17.7 kmh SW 4.9 mph7.9 kmh -338605.1 mb 0.00 in0.0 mm 0.00 in/hr0.0 mm/hr 0.00 in0.0 mm
07:32 PM 71.2°F21.8°C 24.3°F-4.3°C 17% 10.1 mph SSW16.3 kmh SSW 8.9 mph14.3 kmh -338605.1 mb 0.00 in0.0 mm 0.00 in/hr0.0 mm/hr 0.00 in0.0 mm
07:37 PM 70.9°F21.6°C 27.9°F-2.3°C 20% 8.9 mph WSW14.3 kmh WSW 10.1 mph16.3 kmh -338605.1 mb 0.00 in0.0 mm 0.00 in/hr0.0 mm/hr 0.00 in0.0 mm
07:42 PM 70.5°F21.4°C 27.5°F-2.5°C 20% 10.1 mph SW16.3 kmh SW 6.0 mph9.7 kmh -338605.1 mb 0.00 in0.0 mm 0.00 in/hr0.0 mm/hr 0.00 in0.0 mm
07:47 PM 70.3°F21.3°C 28.6°F-1.9°C 21% 8.9 mph SW14.3 kmh SW 6.9 mph11.1 kmh -338605.1 mb 0.00 in0.0 mm 0.00 in/hr0.0 mm/hr 0.00 in0.0 mm
07:52 PM 70.2°F21.2°C 29.5°F-1.4°C 22% 8.1 mph SW13.0 kmh SW 8.9 mph14.3 kmh -338605.1 mb 0.00 in0.0 mm 0.00 in/hr0.0 mm/hr 0.00 in0.0 mm
07:57 PM 70.0°F21.1°C 30.6°F-0.8°C 23% 8.1 mph SW13.0 kmh SW 8.9 mph14.3 kmh -338605.1 mb 0.00 in0.0 mm 0.00 in/hr0.0 mm/hr 0.00 in0.0 mm
08:02 PM 69.4°F20.8°C 30.0°F-1.1°C 23% 8.1 mph SW13.0 kmh SW 8.9 mph14.3 kmh -338605.1 mb 0.00 in0.0 mm 0.00 in/hr0.0 mm/hr 0.00 in0.0 mm
08:07 PM 69.1°F20.6°C 29.7°F-1.3°C 23% 8.1 mph SSW13.0 kmh SSW 6.0 mph9.7 kmh -338605.1 mb 0.00 in0.0 mm 0.00 in/hr0.0 mm/hr 0.00 in0.0 mm
08:12 PM 68.5°F20.3°C 29.3°F-1.5°C 23% 6.9 mph SW11.1 kmh SW 8.1 mph13.0 kmh -338605.1 mb 0.00 in0.0 mm 0.00 in/hr0.0 mm/hr 0.00 in0.0 mm
08:17 PM 68.4°F20.2°C 29.1°F-1.6°C 23% 6.9 mph WSW11.1 kmh WSW 11.0 mph17.7 kmh -338605.1 mb 0.00 in0.0 mm 0.00 in/hr0.0 mm/hr 0.00 in0.0 mm
08:22 PM 67.8°F19.9°C 29.7°F-1.3°C 24% 8.1 mph SW13.0 kmh SW 11.0 mph17.7 kmh -338605.1 mb 0.00 in0.0 mm 0.00 in/hr0.0 mm/hr 0.00 in0.0 mm
08:27 PM 67.5°F19.7°C 29.5°F-1.4°C 24% 8.1 mph SW13.0 kmh SW 12.1 mph19.5 kmh -338605.1 mb 0.00 in0.0 mm 0.00 in/hr0.0 mm/hr 0.00 in0.0 mm
08:32 PM 67.3°F19.6°C 29.3°F-1.5°C 24% 8.9 mph SW14.3 kmh SW 8.9 mph14.3 kmh -338605.1 mb 0.00 in0.0 mm 0.00 in/hr0.0 mm/hr 0.00 in0.0 mm
08:37 PM 66.9°F19.4°C 30.0°F-1.1°C 25% 10.1 mph SW16.3 kmh SW 8.1 mph13.0 kmh -338605.1 mb 0.00 in0.0 mm 0.00 in/hr0.0 mm/hr 0.00 in0.0 mm
08:42 PM 66.7°F19.3°C 29.8°F-1.2°C 25% 8.9 mph SW14.3 kmh SW 8.1 mph13.0 kmh -338605.1 mb 0.00 in0.0 mm 0.00 in/hr0.0 mm/hr 0.00 in0.0 mm
08:47 PM 66.4°F19.1°C 29.5°F-1.4°C 25% 10.1 mph WSW16.3 kmh WSW 6.9 mph11.1 kmh -338605.1 mb 0.00 in0.0 mm 0.00 in/hr0.0 mm/hr 0.00 in0.0 mm
08:52 PM 66.0°F18.9°C 29.1°F-1.6°C 25% 10.1 mph SW16.3 kmh SW 10.1 mph16.3 kmh -338605.1 mb 0.00 in0.0 mm 0.00 in/hr0.0 mm/hr 0.00 in0.0 mm
08:57 PM 65.8°F18.8°C 30.0°F-1.1°C 26% 8.9 mph WSW14.3 kmh WSW 14.1 mph22.7 kmh -338605.1 mb 0.00 in0.0 mm 0.00 in/hr0.0 mm/hr 0.00 in0.0 mm
09:02 PM 65.8°F18.8°C 30.0°F-1.1°C 26% 10.1 mph WSW16.3 kmh WSW 6.0 mph9.7 kmh -338605.1 mb 0.00 in0.0 mm 0.00 in/hr0.0 mm/hr 0.00 in0.0 mm
09:07 PM 65.7°F18.7°C 29.8°F-1.2°C 26% 11.0 mph SW17.7 kmh SW 12.1 mph19.5 kmh -338605.1 mb 0.00 in0.0 mm 0.00 in/hr0.0 mm/hr 0.00 in0.0 mm
09:12 PM 65.5°F18.6°C 29.7°F-1.3°C 26% 10.1 mph WSW16.3 kmh WSW 8.9 mph14.3 kmh -338605.1 mb 0.00 in0.0 mm 0.00 in/hr0.0 mm/hr 0.00 in0.0 mm
09:17 PM 65.1°F18.4°C 30.4°F-0.9°C 27% 8.9 mph SW14.3 kmh SW 21.9 mph35.2 kmh -338605.1 mb 0.00 in0.0 mm 0.00 in/hr0.0 mm/hr 0.00 in0.0 mm
09:22 PM 64.9°F18.3°C 30.2°F-1.0°C 27% 10.1 mph SW16.3 kmh SW 8.1 mph13.0 kmh -338605.1 mb 0.00 in0.0 mm 0.00 in/hr0.0 mm/hr 0.00 in0.0 mm
09:27 PM 64.8°F18.2°C 30.0°F-1.1°C 27% 11.0 mph WSW17.7 kmh WSW 17.0 mph27.4 kmh -338605.1 mb 0.00 in0.0 mm 0.00 in/hr0.0 mm/hr 0.00 in0.0 mm
09:32 PM 64.6°F18.1°C 29.8°F-1.2°C 27% 10.1 mph WSW16.3 kmh WSW 8.1 mph13.0 kmh -338605.1 mb 0.00 in0.0 mm 0.00 in/hr0.0 mm/hr 0.00 in0.0 mm
09:37 PM 64.2°F17.9°C 30.4°F-0.9°C 28% 8.1 mph SW13.0 kmh SW 8.9 mph14.3 kmh -338605.1 mb 0.00 in0.0 mm 0.00 in/hr0.0 mm/hr 0.00 in0.0 mm
09:42 PM 64.0°F17.8°C 31.1°F-0.5°C 29% 6.9 mph SW11.1 kmh SW 2.9 mph4.7 kmh -338605.1 mb 0.00 in0.0 mm 0.00 in/hr0.0 mm/hr 0.00 in0.0 mm
09:47 PM 63.7°F17.6°C 30.7°F-0.7°C 29% 6.9 mph SW11.1 kmh SW 8.9 mph14.3 kmh -338605.1 mb 0.00 in0.0 mm 0.00 in/hr0.0 mm/hr 0.00 in0.0 mm
09:52 PM 63.3°F17.4°C 30.6°F-0.8°C 29% 8.1 mph SSW13.0 kmh SSW 6.9 mph11.1 kmh -338605.1 mb 0.00 in0.0 mm 0.00 in/hr0.0 mm/hr 0.00 in0.0 mm
09:57 PM 63.1°F17.3°C 31.3°F-0.4°C 30% 6.9 mph SW11.1 kmh SW 6.0 mph9.7 kmh -338605.1 mb 0.00 in0.0 mm 0.00 in/hr0.0 mm/hr 0.00 in0.0 mm
10:02 PM 63.0°F17.2°C 31.1°F-0.5°C 30% 4.9 mph SW7.9 kmh SW 6.0 mph9.7 kmh -338605.1 mb 0.00 in0.0 mm 0.00 in/hr0.0 mm/hr 0.00 in0.0 mm
10:07 PM 62.8°F17.1°C 30.9°F-0.6°C 30% 4.9 mph SW7.9 kmh SW 4.9 mph7.9 kmh -338605.1 mb 0.00 in0.0 mm 0.00 in/hr0.0 mm/hr 0.00 in0.0 mm
10:12 PM 62.4°F16.9°C 30.6°F-0.8°C 30% 6.0 mph SW9.7 kmh SW 4.0 mph6.4 kmh -338605.1 mb 0.00 in0.0 mm 0.00 in/hr0.0 mm/hr 0.00 in0.0 mm
10:17 PM 62.4°F16.9°C 30.6°F-0.8°C 30% 6.9 mph SW11.1 kmh SW 8.1 mph13.0 kmh -338605.1 mb 0.00 in0.0 mm 0.00 in/hr0.0 mm/hr 0.00 in0.0 mm
10:22 PM 62.2°F16.8°C 30.4°F-0.9°C 30% 8.1 mph SSW13.0 kmh SSW 4.9 mph7.9 kmh -338605.1 mb 0.00 in0.0 mm 0.00 in/hr0.0 mm/hr 0.00 in0.0 mm
10:27 PM 62.2°F16.8°C 30.4°F-0.9°C 30% 6.9 mph SW11.1 kmh SW 8.1 mph13.0 kmh -338605.1 mb 0.00 in0.0 mm 0.00 in/hr0.0 mm/hr 0.00 in0.0 mm
10:32 PM 62.1°F16.7°C 30.2°F-1.0°C 30% 6.9 mph SW11.1 kmh SW 10.1 mph16.3 kmh -338605.1 mb 0.00 in0.0 mm 0.00 in/hr0.0 mm/hr 0.00 in0.0 mm
10:37 PM 61.9°F16.6°C 30.0°F-1.1°C 30% 8.1 mph SW13.0 kmh SW 10.1 mph16.3 kmh -338605.1 mb 0.00 in0.0 mm 0.00 in/hr0.0 mm/hr 0.00 in0.0 mm
10:42 PM 61.7°F16.5°C 30.0°F-1.1°C 30% 8.9 mph SW14.3 kmh SW 6.0 mph9.7 kmh -338605.1 mb 0.00 in0.0 mm 0.00 in/hr0.0 mm/hr 0.00 in0.0 mm
10:47 PM 61.5°F16.4°C 29.8°F-1.2°C 30% 8.1 mph SW13.0 kmh SW 8.9 mph14.3 kmh -338605.1 mb 0.00 in0.0 mm 0.00 in/hr0.0 mm/hr 0.00 in0.0 mm
10:52 PM 61.3°F16.3°C 29.7°F-1.3°C 30% 8.1 mph SW13.0 kmh SW 6.0 mph9.7 kmh -338605.1 mb 0.00 in0.0 mm 0.00 in/hr0.0 mm/hr 0.00 in0.0 mm
10:57 PM 61.3°F16.3°C 29.7°F-1.3°C 30% 8.1 mph SW13.0 kmh SW 4.9 mph7.9 kmh -338605.1 mb 0.00 in0.0 mm 0.00 in/hr0.0 mm/hr 0.00 in0.0 mm
11:02 PM 61.2°F16.2°C 30.2°F-1.0°C 31% 8.9 mph SW14.3 kmh SW 8.1 mph13.0 kmh -338605.1 mb 0.00 in0.0 mm 0.00 in/hr0.0 mm/hr 0.00 in0.0 mm
11:07 PM 61.2°F16.2°C 30.2°F-1.0°C 31% 10.1 mph SW16.3 kmh SW 6.0 mph9.7 kmh -338605.1 mb 0.00 in0.0 mm 0.00 in/hr0.0 mm/hr 0.00 in0.0 mm
11:12 PM 61.2°F16.2°C 30.2°F-1.0°C 31% 8.9 mph SW14.3 kmh SW 12.1 mph19.5 kmh -338605.1 mb 0.00 in0.0 mm 0.00 in/hr0.0 mm/hr 0.00 in0.0 mm
11:17 PM 61.0°F16.1°C 29.3°F-1.5°C 30% 8.9 mph SW14.3 kmh SW 10.1 mph16.3 kmh -338605.1 mb 0.00 in0.0 mm 0.00 in/hr0.0 mm/hr 0.00 in0.0 mm
11:22 PM 61.0°F16.1°C 29.3°F-1.5°C 30% 8.9 mph SW14.3 kmh SW 12.1 mph19.5 kmh -338605.1 mb 0.00 in0.0 mm 0.00 in/hr0.0 mm/hr 0.00 in0.0 mm
11:27 PM 61.0°F16.1°C 29.3°F-1.5°C 30% 8.9 mph SW14.3 kmh SW 8.1 mph13.0 kmh -338605.1 mb 0.00 in0.0 mm 0.00 in/hr0.0 mm/hr 0.00 in0.0 mm
11:32 PM 60.6°F15.9°C 28.9°F-1.7°C 30% 8.9 mph SW14.3 kmh SW 8.1 mph13.0 kmh -338605.1 mb 0.00 in0.0 mm 0.00 in/hr0.0 mm/hr 0.00 in0.0 mm
11:37 PM 60.6°F15.9°C 29.8°F-1.2°C 31% 10.1 mph SW16.3 kmh SW 6.9 mph11.1 kmh -338605.1 mb 0.00 in0.0 mm 0.00 in/hr0.0 mm/hr 0.00 in0.0 mm
11:42 PM 60.4°F15.8°C 29.7°F-1.3°C 31% 8.9 mph SW14.3 kmh SW 10.1 mph16.3 kmh -338605.1 mb 0.00 in0.0 mm 0.00 in/hr0.0 mm/hr 0.00 in0.0 mm
11:47 PM 60.4°F15.8°C 30.4°F-0.9°C 32% 8.9 mph SW14.3 kmh SW 8.9 mph14.3 kmh -338605.1 mb 0.00 in0.0 mm 0.00 in/hr0.0 mm/hr 0.00 in0.0 mm
11:52 PM 60.4°F15.8°C 30.4°F-0.9°C 32% 8.9 mph S14.3 kmh S 6.9 mph11.1 kmh -338605.1 mb 0.00 in0.0 mm 0.00 in/hr0.0 mm/hr 0.00 in0.0 mm
11:57 PM 60.6°F15.9°C 29.8°F-1.2°C 31% 8.1 mph SW13.0 kmh SW 8.9 mph14.3 kmh -338605.1 mb 0.00 in0.0 mm 0.00 in/hr0.0 mm/hr 0.00 in0.0 mm